Time;durP1;ratioP1;P1;durP2;ratioP2;P2;SDS_P1;SDS_P2;PMS_P1;PMS_P2;Temp;Humidity;BMP_temperature;BMP_pressure;BME280_temperature;BME280_humidity;BME280_pressure;Samples;Min_cycle;Max_cycle;Signal;HPM_P1;HPM_P2
2024/03/22 00:02:12;;;;;;;;;;;6.00;99.90;;;;;;4969371;28;20317;-63
2024/03/22 00:04:38;;;;;;;;;;;5.90;99.90;;;;;;4946058;28;20036;-63
2024/03/22 00:07:04;;;;;;;;;;;5.90;99.90;;;;;;4970922;28;19926;-63
2024/03/22 00:09:30;;;;;;;;;;;5.90;99.90;;;;;;4972361;28;19926;-63
2024/03/22 00:11:56;;;;;;;;;;;5.90;99.90;;;;;;4975103;28;20898;-63
2024/03/22 00:14:21;;;;;;;;;;;6.00;99.90;;;;;;4971767;28;20048;-63
2024/03/22 00:16:48;;;;;;;;;;;6.00;99.90;;;;;;4965530;28;19930;-62
2024/03/22 00:19:14;;;;;;;;;;;6.10;99.90;;;;;;4963922;28;19933;-63
2024/03/22 00:21:40;;;;;;;;;;;6.10;99.90;;;;;;4956666;28;19936;-63
2024/03/22 00:24:05;;;;;;;;;;;6.10;99.90;;;;;;4969669;28;19933;-63
2024/03/22 00:26:31;;;;;;;;;;;6.10;99.90;;;;;;4955397;28;19936;-63
2024/03/22 00:29:00;;;;;;;;;;;6.00;99.90;;;;;;4969155;28;20017;-63
2024/03/22 00:31:26;;;;;;;;;;;6.00;99.90;;;;;;4974011;28;19934;-63
2024/03/22 00:33:52;;;;;;;;;;;6.00;99.90;;;;;;4964888;28;19978;-63
2024/03/22 00:36:18;;;;;;;;;;;6.10;99.90;;;;;;4966466;28;19987;-63
2024/03/22 00:38:44;;;;;;;;;;;6.10;99.90;;;;;;4958983;28;20468;-63
2024/03/22 00:41:10;;;;;;;;;;;6.20;99.90;;;;;;4966838;28;19926;-63
2024/03/22 00:43:36;;;;;;;;;;;6.20;99.90;;;;;;4967946;28;19957;-63
2024/03/22 00:46:02;;;;;;;;;;;6.20;99.90;;;;;;4969469;28;19930;-63
2024/03/22 00:48:28;;;;;;;;;;;6.30;99.90;;;;;;4968531;28;19980;-63
2024/03/22 00:50:54;;;;;;;;;;;6.20;99.90;;;;;;4969210;28;20338;-63
2024/03/22 00:53:20;;;;;;;;;;;6.10;99.90;;;;;;4975606;28;20524;-62
2024/03/22 00:55:50;;;;;;;;;;;6.10;99.90;;;;;;4969245;28;19930;-63
2024/03/22 00:58:18;;;;;;;;;;;6.10;99.90;;;;;;4974755;28;19926;-63
2024/03/22 01:00:44;;;;;;;;;;;6.10;99.90;;;;;;4970469;28;19949;-63
2024/03/22 01:03:10;;;;;;;;;;;6.00;99.90;;;;;;4967472;28;20449;-63
2024/03/22 01:05:36;;;;;;;;;;;6.00;99.90;;;;;;4962590;28;19933;-63
2024/03/22 01:08:02;;;;;;;;;;;6.00;99.90;;;;;;4969742;28;19934;-63
2024/03/22 01:10:28;;;;;;;;;;;6.00;99.90;;;;;;4970577;28;20464;-63
2024/03/22 01:12:53;;;;;;;;;;;6.00;99.90;;;;;;4967285;28;19926;-63
2024/03/22 01:15:19;;;;;;;;;;;6.00;99.90;;;;;;4977135;28;20298;-62
2024/03/22 01:17:45;;;;;;;;;;;6.00;99.90;;;;;;4973695;28;20416;-63
2024/03/22 01:20:11;;;;;;;;;;;6.00;99.90;;;;;;4971978;28;19980;-63
2024/03/22 01:22:37;;;;;;;;;;;6.00;99.90;;;;;;4969684;28;19925;-64
2024/03/22 01:25:03;;;;;;;;;;;6.00;99.90;;;;;;4970093;28;20370;-63
2024/03/22 01:27:29;;;;;;;;;;;6.00;99.90;;;;;;4965875;28;19930;-62
2024/03/22 01:29:54;;;;;;;;;;;5.90;99.90;;;;;;4980287;28;19926;-63
2024/03/22 01:32:20;;;;;;;;;;;5.90;99.90;;;;;;4975400;28;20394;-63
2024/03/22 01:34:46;;;;;;;;;;;5.80;99.90;;;;;;4964466;28;19934;-69
2024/03/22 01:37:12;;;;;;;;;;;5.80;99.90;;;;;;4960148;28;19926;-62
2024/03/22 01:39:38;;;;;;;;;;;5.80;99.90;;;;;;4982994;28;20206;-63
2024/03/22 01:42:04;;;;;;;;;;;5.70;99.90;;;;;;4965886;28;19952;-63
2024/03/22 01:44:31;;;;;;;;;;;5.70;99.90;;;;;;4972383;28;19926;-63
2024/03/22 01:46:57;;;;;;;;;;;5.60;99.90;;;;;;4965728;28;19937;-62
2024/03/22 01:49:24;;;;;;;;;;;5.60;99.90;;;;;;4968957;28;20674;-63
2024/03/22 01:51:50;;;;;;;;;;;5.50;99.90;;;;;;4967478;28;19933;-63
2024/03/22 01:54:17;;;;;;;;;;;5.50;99.90;;;;;;4960351;28;19941;-63
2024/03/22 01:56:43;;;;;;;;;;;5.40;99.90;;;;;;4954795;28;19930;-63
2024/03/22 01:59:09;;;;;;;;;;;5.40;99.90;;;;;;4967295;28;19980;-63
2024/03/22 02:01:35;;;;;;;;;;;5.40;99.90;;;;;;4968929;28;20004;-63
2024/03/22 02:04:01;;;;;;;;;;;5.40;99.90;;;;;;4967070;28;19930;-63
2024/03/22 02:06:27;;;;;;;;;;;5.30;99.90;;;;;;4965268;28;19933;-62
2024/03/22 02:08:53;;;;;;;;;;;5.30;99.90;;;;;;4969463;28;19926;-63
2024/03/22 02:11:19;;;;;;;;;;;5.30;99.90;;;;;;4969486;28;20477;-63
2024/03/22 02:13:45;;;;;;;;;;;5.30;99.90;;;;;;4970887;28;19937;-63
2024/03/22 02:16:12;;;;;;;;;;;5.30;99.90;;;;;;4965434;28;19926;-62
2024/03/22 02:18:37;;;;;;;;;;;5.30;99.90;;;;;;4969661;28;19984;-63
2024/03/22 02:21:03;;;;;;;;;;;5.30;99.90;;;;;;4962862;28;19930;-63
2024/03/22 02:23:33;;;;;;;;;;;5.30;99.90;;;;;;4960229;28;20402;-63
2024/03/22 02:26:00;;;;;;;;;;;5.30;99.90;;;;;;4971855;28;19930;-62
2024/03/22 02:28:26;;;;;;;;;;;5.20;99.90;;;;;;4965635;28;19953;-63
2024/03/22 02:30:52;;;;;;;;;;;5.20;99.90;;;;;;4964692;28;19929;-63
2024/03/22 02:33:18;;;;;;;;;;;5.20;99.90;;;;;;4985141;28;19974;-62
2024/03/22 02:35:47;;;;;;;;;;;5.20;99.90;;;;;;4958142;28;19969;-62
2024/03/22 02:38:13;;;;;;;;;;;5.20;99.90;;;;;;4972352;28;19930;-63
2024/03/22 02:40:39;;;;;;;;;;;5.20;99.90;;;;;;4959735;28;19925;-63
2024/03/22 02:43:05;;;;;;;;;;;5.10;99.90;;;;;;4968261;28;20306;-63
2024/03/22 02:45:31;;;;;;;;;;;5.10;99.90;;;;;;4965733;28;19930;-62
2024/03/22 02:47:57;;;;;;;;;;;5.10;99.90;;;;;;4966645;28;20338;-63
2024/03/22 02:50:23;;;;;;;;;;;5.10;99.90;;;;;;4960287;28;19930;-64
2024/03/22 02:52:49;;;;;;;;;;;5.10;99.90;;;;;;4961682;28;19926;-63
2024/03/22 02:55:15;;;;;;;;;;;5.10;99.90;;;;;;4980789;28;19933;-62
2024/03/22 02:57:41;;;;;;;;;;;5.00;99.90;;;;;;4968717;28;19926;-63
2024/03/22 03:00:07;;;;;;;;;;;5.00;99.90;;;;;;4965082;28;19930;-63
2024/03/22 03:02:32;;;;;;;;;;;5.00;99.90;;;;;;4967678;28;20310;-63
2024/03/22 03:04:58;;;;;;;;;;;4.90;99.90;;;;;;4982518;28;19971;-63
2024/03/22 03:07:24;;;;;;;;;;;4.90;99.90;;;;;;4957576;28;19930;-62
2024/03/22 03:09:50;;;;;;;;;;;4.90;99.90;;;;;;4962982;28;19926;-63
2024/03/22 03:12:16;;;;;;;;;;;4.90;99.90;;;;;;4962796;28;19930;-63
2024/03/22 03:14:42;;;;;;;;;;;4.80;99.90;;;;;;4967220;28;19941;-63
2024/03/22 03:17:08;;;;;;;;;;;4.90;99.90;;;;;;4963912;28;19926;-63
2024/03/22 03:19:36;;;;;;;;;;;4.90;99.90;;;;;;4958982;28;19926;-63
2024/03/22 03:22:01;;;;;;;;;;;5.10;99.90;;;;;;4964575;28;19996;-63
2024/03/22 03:24:27;;;;;;;;;;;5.10;99.90;;;;;;4980006;28;20391;-62
2024/03/22 03:26:53;;;;;;;;;;;5.10;99.90;;;;;;4968689;28;20004;-63
2024/03/22 03:29:19;;;;;;;;;;;5.10;99.90;;;;;;4958208;28;19936;-63
2024/03/22 03:31:45;;;;;;;;;;;5.10;99.90;;;;;;4968319;28;19980;-63
2024/03/22 03:34:11;;;;;;;;;;;5.10;99.90;;;;;;4962603;28;19933;-63
2024/03/22 03:36:37;;;;;;;;;;;5.10;99.90;;;;;;4969084;28;19937;-63
2024/03/22 03:39:03;;;;;;;;;;;5.10;99.90;;;;;;4946225;28;19926;-63
2024/03/22 03:41:29;;;;;;;;;;;5.00;99.90;;;;;;4958969;28;20292;-63
2024/03/22 03:43:55;;;;;;;;;;;4.90;99.90;;;;;;4969088;28;19979;-63
2024/03/22 03:46:21;;;;;;;;;;;4.80;99.90;;;;;;4963247;28;19961;-63
2024/03/22 03:48:47;;;;;;;;;;;4.80;99.90;;;;;;4967695;28;19929;-63
2024/03/22 03:51:12;;;;;;;;;;;4.70;99.90;;;;;;4974228;28;19941;-63
2024/03/22 03:53:39;;;;;;;;;;;4.60;99.90;;;;;;4968173;28;19933;-63
2024/03/22 03:56:04;;;;;;;;;;;4.60;99.90;;;;;;4968514;28;19925;-63
2024/03/22 03:58:30;;;;;;;;;;;4.60;99.90;;;;;;4968315;28;20301;-62
2024/03/22 04:00:56;;;;;;;;;;;4.60;99.90;;;;;;4969716;28;19933;-63
2024/03/22 04:03:24;;;;;;;;;;;4.60;99.90;;;;;;4950057;28;20294;-63
2024/03/22 04:05:56;;;;;;;;;;;4.60;99.90;;;;;;4974445;28;19952;-62
2024/03/22 04:08:22;;;;;;;;;;;4.60;99.90;;;;;;4969438;28;19930;-63
2024/03/22 04:10:52;;;;;;;;;;;4.60;99.90;;;;;;4960867;28;19930;-62
2024/03/22 04:13:18;;;;;;;;;;;4.60;99.90;;;;;;4968851;28;19926;-63
2024/03/22 04:15:44;;;;;;;;;;;4.60;99.90;;;;;;4966563;28;19981;-63
2024/03/22 04:18:09;;;;;;;;;;;4.50;99.90;;;;;;4965012;28;19929;-63
2024/03/22 04:20:35;;;;;;;;;;;4.50;99.90;;;;;;4967580;28;19934;-66
2024/03/22 04:23:01;;;;;;;;;;;4.50;99.90;;;;;;4968366;28;20360;-63
2024/03/22 04:25:27;;;;;;;;;;;4.50;99.90;;;;;;4982406;28;20622;-62
2024/03/22 04:27:53;;;;;;;;;;;4.40;99.90;;;;;;4962253;28;19977;-63
2024/03/22 04:30:19;;;;;;;;;;;4.40;99.90;;;;;;4967392;28;19930;-62
2024/03/22 04:32:46;;;;;;;;;;;4.90;99.90;;;;;;4955706;28;19929;-63
2024/03/22 04:35:11;;;;;;;;;;;4.90;99.90;;;;;;4958970;28;19985;-62
2024/03/22 04:37:37;;;;;;;;;;;4.80;99.90;;;;;;4966511;28;20424;-63
2024/03/22 04:40:04;;;;;;;;;;;4.70;99.90;;;;;;4965586;28;19934;-63
2024/03/22 04:42:29;;;;;;;;;;;4.60;99.90;;;;;;4956266;28;19980;-63
2024/03/22 04:44:55;;;;;;;;;;;4.50;99.90;;;;;;4969277;28;19926;-63
2024/03/22 04:47:21;;;;;;;;;;;4.50;99.90;;;;;;4965343;28;19976;-63
2024/03/22 04:49:47;;;;;;;;;;;4.40;99.90;;;;;;4958459;28;19995;-63
2024/03/22 04:52:13;;;;;;;;;;;4.40;99.90;;;;;;4957677;28;19930;-63
2024/03/22 04:54:39;;;;;;;;;;;4.40;99.90;;;;;;4957782;28;20398;-63
2024/03/22 04:57:05;;;;;;;;;;;4.40;99.90;;;;;;4958036;28;20045;-63
2024/03/22 04:59:31;;;;;;;;;;;4.40;99.90;;;;;;4970983;28;19926;-62
2024/03/22 05:01:57;;;;;;;;;;;4.40;99.90;;;;;;4967030;28;19926;-62
2024/03/22 05:04:23;;;;;;;;;;;4.40;99.90;;;;;;4963306;28;19926;-63
2024/03/22 05:06:49;;;;;;;;;;;4.40;99.90;;;;;;4969161;28;20279;-63
2024/03/22 05:09:15;;;;;;;;;;;4.40;99.90;;;;;;4983487;28;19926;-63
2024/03/22 05:11:41;;;;;;;;;;;4.30;99.90;;;;;;4968620;28;20009;-63
2024/03/22 05:14:07;;;;;;;;;;;4.30;99.90;;;;;;4970828;28;19930;-63
2024/03/22 05:16:33;;;;;;;;;;;4.30;99.90;;;;;;4976449;28;19969;-62
2024/03/22 05:18:59;;;;;;;;;;;4.30;99.90;;;;;;4974854;28;19948;-63
2024/03/22 05:21:24;;;;;;;;;;;4.30;99.90;;;;;;4958922;28;20379;-63
2024/03/22 05:23:50;;;;;;;;;;;4.20;99.90;;;;;;4970576;28;19926;-64
2024/03/22 05:26:18;;;;;;;;;;;4.30;99.90;;;;;;4956533;28;19957;-63
2024/03/22 05:28:44;;;;;;;;;;;4.20;99.90;;;;;;4957745;28;20350;-63
2024/03/22 05:31:10;;;;;;;;;;;4.30;99.90;;;;;;4971389;28;19926;-62
2024/03/22 05:33:36;;;;;;;;;;;4.30;99.90;;;;;;4957517;28;19981;-63
2024/03/22 05:36:03;;;;;;;;;;;4.30;99.90;;;;;;4980548;28;20226;-63
2024/03/22 05:38:29;;;;;;;;;;;4.30;99.90;;;;;;4975958;28;20417;-63
2024/03/22 05:40:55;;;;;;;;;;;4.30;99.90;;;;;;4981914;28;20599;-63
2024/03/22 05:43:22;;;;;;;;;;;4.30;99.90;;;;;;4972273;28;19933;-63
2024/03/22 05:45:48;;;;;;;;;;;4.30;99.90;;;;;;4970696;28;19985;-63
2024/03/22 05:48:14;;;;;;;;;;;4.30;99.90;;;;;;4974544;28;19937;-63
2024/03/22 05:50:40;;;;;;;;;;;4.40;99.90;;;;;;4968500;28;19926;-63
2024/03/22 05:53:06;;;;;;;;;;;4.40;99.90;;;;;;4978958;28;20386;-62
2024/03/22 05:55:32;;;;;;;;;;;4.50;99.90;;;;;;4973449;28;19985;-62
2024/03/22 05:57:58;;;;;;;;;;;4.50;99.90;;;;;;4972837;28;19930;-62
2024/03/22 06:00:24;;;;;;;;;;;4.50;99.90;;;;;;4956925;28;20408;-62
2024/03/22 06:02:50;;;;;;;;;;;4.50;99.90;;;;;;4972695;28;19946;-63
2024/03/22 06:05:17;;;;;;;;;;;4.50;99.90;;;;;;4972289;28;20441;-63
2024/03/22 06:07:45;;;;;;;;;;;4.50;99.90;;;;;;4971570;28;19945;-62
2024/03/22 06:10:11;;;;;;;;;;;4.60;99.90;;;;;;4973787;28;19925;-62
2024/03/22 06:12:37;;;;;;;;;;;4.60;99.90;;;;;;4972864;28;19936;-63
2024/03/22 06:15:05;;;;;;;;;;;4.60;99.90;;;;;;4956419;28;19929;-62
2024/03/22 06:17:33;;;;;;;;;;;4.60;99.90;;;;;;4967296;28;20559;-63
2024/03/22 06:19:59;;;;;;;;;;;4.70;99.90;;;;;;4974419;28;19937;-63
2024/03/22 06:22:25;;;;;;;;;;;4.70;99.90;;;;;;4972173;28;19930;-62
2024/03/22 06:24:51;;;;;;;;;;;4.80;99.90;;;;;;4972231;28;19977;-62
2024/03/22 06:27:17;;;;;;;;;;;4.80;99.90;;;;;;4954735;28;20325;-63
2024/03/22 06:29:43;;;;;;;;;;;4.90;99.90;;;;;;4973435;28;19934;-62
2024/03/22 06:32:09;;;;;;;;;;;4.90;99.90;;;;;;4941706;28;21209;-63
2024/03/22 06:34:35;;;;;;;;;;;5.00;99.90;;;;;;4972477;28;19926;-63
2024/03/22 06:37:01;;;;;;;;;;;5.10;99.90;;;;;;4970105;28;19926;-63
2024/03/22 06:39:27;;;;;;;;;;;5.10;99.90;;;;;;4973775;28;19932;-63
2024/03/22 06:41:53;;;;;;;;;;;5.20;99.90;;;;;;4973931;28;19930;-62
2024/03/22 06:44:19;;;;;;;;;;;5.30;99.90;;;;;;4971316;28;19941;-63
2024/03/22 06:46:45;;;;;;;;;;;5.40;99.90;;;;;;4974238;28;19987;-62
2024/03/22 06:49:11;;;;;;;;;;;5.40;99.90;;;;;;4957209;28;20357;-63
2024/03/22 06:51:37;;;;;;;;;;;5.50;99.90;;;;;;4969681;28;19988;-63
2024/03/22 06:54:02;;;;;;;;;;;5.50;99.90;;;;;;4957069;28;20390;-63
2024/03/22 06:56:28;;;;;;;;;;;5.60;99.90;;;;;;4972683;28;19930;-63
2024/03/22 06:58:54;;;;;;;;;;;5.70;99.90;;;;;;4971949;28;19973;-63
2024/03/22 07:01:20;;;;;;;;;;;5.70;99.90;;;;;;4971482;28;19936;-64
2024/03/22 07:03:47;;;;;;;;;;;5.70;99.90;;;;;;4972069;28;19925;-63
2024/03/22 07:06:14;;;;;;;;;;;5.80;99.90;;;;;;4956792;28;20370;-63
2024/03/22 07:08:39;;;;;;;;;;;5.80;99.90;;;;;;4956782;28;19937;-63
2024/03/22 07:11:06;;;;;;;;;;;5.90;99.90;;;;;;4955372;28;19929;-63
2024/03/22 07:13:32;;;;;;;;;;;5.90;99.90;;;;;;4967792;28;19933;-63
2024/03/22 07:15:58;;;;;;;;;;;6.00;99.90;;;;;;4956580;28;19973;-63
2024/03/22 07:18:23;;;;;;;;;;;6.00;99.90;;;;;;4972509;28;19930;-63
2024/03/22 07:20:49;;;;;;;;;;;6.10;99.90;;;;;;4972736;28;19934;-64
2024/03/22 07:23:15;;;;;;;;;;;6.20;99.90;;;;;;4954997;28;19929;-63
2024/03/22 07:25:45;;;;;;;;;;;6.30;99.90;;;;;;4984949;28;19929;-63
2024/03/22 07:28:11;;;;;;;;;;;6.40;99.90;;;;;;4971551;28;19926;-63
2024/03/22 07:30:37;;;;;;;;;;;6.60;99.90;;;;;;4971769;28;20398;-63
2024/03/22 07:33:03;;;;;;;;;;;6.70;99.90;;;;;;4967020;28;19929;-63
2024/03/22 07:35:29;;;;;;;;;;;6.80;99.90;;;;;;4971226;28;19938;-63
2024/03/22 07:37:56;;;;;;;;;;;7.00;99.90;;;;;;4973141;28;19969;-63
2024/03/22 07:40:22;;;;;;;;;;;7.10;99.90;;;;;;4970538;28;19973;-63
2024/03/22 07:42:47;;;;;;;;;;;7.20;99.90;;;;;;4973301;28;19959;-63
2024/03/22 07:45:13;;;;;;;;;;;7.40;99.90;;;;;;4969102;28;20294;-63
2024/03/22 07:47:42;;;;;;;;;;;7.50;99.90;;;;;;4969673;28;19934;-63
2024/03/22 07:50:08;;;;;;;;;;;7.70;99.90;;;;;;4972719;28;19979;-63
2024/03/22 07:52:34;;;;;;;;;;;7.90;99.90;;;;;;4972404;28;20023;-63
2024/03/22 07:55:02;;;;;;;;;;;8.30;99.90;;;;;;4972609;28;20397;-63
2024/03/22 07:57:31;;;;;;;;;;;8.70;99.90;;;;;;4967844;28;19930;-63
2024/03/22 07:59:57;;;;;;;;;;;9.00;99.90;;;;;;4986891;28;20310;-63
2024/03/22 08:02:23;;;;;;;;;;;9.30;99.90;;;;;;4962315;28;19934;-64
2024/03/22 08:04:49;;;;;;;;;;;9.60;99.90;;;;;;4972947;28;19926;-64
2024/03/22 08:07:15;;;;;;;;;;;9.80;99.90;;;;;;4968510;28;19925;-64
2024/03/22 08:09:41;;;;;;;;;;;10.00;99.90;;;;;;4986893;28;19937;-64
2024/03/22 08:12:07;;;;;;;;;;;10.20;99.90;;;;;;4980482;28;20048;-64
2024/03/22 08:14:33;;;;;;;;;;;10.30;99.90;;;;;;4979650;28;19930;-64
2024/03/22 08:16:59;;;;;;;;;;;10.40;99.90;;;;;;4964789;28;19929;-64
2024/03/22 08:19:25;;;;;;;;;;;10.50;99.90;;;;;;4975081;28;19933;-65
2024/03/22 08:21:51;;;;;;;;;;;10.60;99.90;;;;;;4977485;28;19934;-63
2024/03/22 08:24:18;;;;;;;;;;;10.80;99.90;;;;;;4965221;28;19934;-63
2024/03/22 08:26:46;;;;;;;;;;;10.90;99.90;;;;;;4978467;28;19972;-63
2024/03/22 08:29:14;;;;;;;;;;;11.00;99.90;;;;;;4982755;28;19925;-64
2024/03/22 08:31:40;;;;;;;;;;;11.10;99.90;;;;;;4978284;28;20436;-64
2024/03/22 08:34:07;;;;;;;;;;;11.20;99.90;;;;;;4978401;28;19929;-65
2024/03/22 08:36:33;;;;;;;;;;;11.30;99.90;;;;;;4980524;28;19936;-66
2024/03/22 08:38:59;;;;;;;;;;;11.40;99.90;;;;;;4987919;28;20321;-66
2024/03/22 08:41:24;;;;;;;;;;;11.50;99.90;;;;;;4980357;28;19926;-64
2024/03/22 08:43:50;;;;;;;;;;;11.50;99.90;;;;;;4983222;28;19976;-64
2024/03/22 08:46:16;;;;;;;;;;;11.60;99.90;;;;;;4981584;28;19929;-65
2024/03/22 08:48:42;;;;;;;;;;;11.70;99.90;;;;;;4966382;28;20685;-63
2024/03/22 08:51:08;;;;;;;;;;;11.90;99.90;;;;;;4997591;28;19934;-63
2024/03/22 08:53:34;;;;;;;;;;;12.00;99.90;;;;;;4983064;28;19988;-63
2024/03/22 08:55:59;;;;;;;;;;;12.10;99.90;;;;;;4968648;28;19937;-63
2024/03/22 08:58:26;;;;;;;;;;;12.30;99.90;;;;;;4980872;28;19926;-62
2024/03/22 09:00:52;;;;;;;;;;;12.40;99.90;;;;;;4983494;28;19934;-62
2024/03/22 09:03:18;;;;;;;;;;;12.50;99.90;;;;;;4984241;28;20306;-63
2024/03/22 09:05:43;;;;;;;;;;;12.60;99.90;;;;;;4982078;28;19980;-64
2024/03/22 09:08:09;;;;;;;;;;;12.60;99.90;;;;;;4966526;28;19930;-63
2024/03/22 09:10:35;;;;;;;;;;;12.70;99.90;;;;;;4982049;28;19968;-63
2024/03/22 09:13:01;;;;;;;;;;;12.80;99.90;;;;;;4984657;28;19933;-63
2024/03/22 09:15:27;;;;;;;;;;;12.80;99.90;;;;;;4979185;28;20396;-63
2024/03/22 09:17:53;;;;;;;;;;;12.90;99.90;;;;;;4983922;28;20064;-63
2024/03/22 09:20:19;;;;;;;;;;;12.90;99.90;;;;;;5000443;28;19940;-64
2024/03/22 09:22:45;;;;;;;;;;;13.00;99.90;;;;;;4979790;28;20386;-63
2024/03/22 09:25:11;;;;;;;;;;;13.00;99.90;;;;;;4981722;28;19976;-64
2024/03/22 09:27:37;;;;;;;;;;;13.10;99.90;;;;;;4981207;28;20353;-63
2024/03/22 09:30:04;;;;;;;;;;;13.20;99.90;;;;;;4967651;28;19933;-63
2024/03/22 09:32:30;;;;;;;;;;;13.20;99.90;;;;;;4966058;28;19933;-63
2024/03/22 09:34:55;;;;;;;;;;;13.20;99.90;;;;;;4980989;28;19926;-63
2024/03/22 09:37:21;;;;;;;;;;;13.30;99.90;;;;;;4964745;28;19984;-62
2024/03/22 09:39:47;;;;;;;;;;;13.30;99.90;;;;;;4991672;28;19930;-64
2024/03/22 09:42:16;;;;;;;;;;;13.30;99.90;;;;;;4999255;28;19933;-63
2024/03/22 09:44:46;;;;;;;;;;;13.40;99.90;;;;;;4982938;28;19930;-63
2024/03/22 09:47:14;;;;;;;;;;;13.50;99.90;;;;;;4987373;28;19929;-64
2024/03/22 09:49:40;;;;;;;;;;;13.50;99.90;;;;;;4981268;28;19967;-64
2024/03/22 09:52:06;;;;;;;;;;;13.60;99.90;;;;;;4978084;28;20006;-64
2024/03/22 09:54:32;;;;;;;;;;;13.70;99.90;;;;;;4966695;28;20445;-64
2024/03/22 09:56:58;;;;;;;;;;;13.70;99.90;;;;;;4983230;28;19949;-63
2024/03/22 09:59:24;;;;;;;;;;;13.80;99.90;;;;;;4983885;28;19988;-63
2024/03/22 10:01:51;;;;;;;;;;;13.80;99.90;;;;;;4995030;28;19925;-63
2024/03/22 10:04:19;;;;;;;;;;;13.90;99.90;;;;;;4965635;28;19956;-63
2024/03/22 10:06:47;;;;;;;;;;;13.90;99.90;;;;;;4982247;28;20386;-63
2024/03/22 10:09:13;;;;;;;;;;;13.90;99.90;;;;;;4979623;28;19934;-63
2024/03/22 10:11:39;;;;;;;;;;;14.00;99.90;;;;;;4981291;28;19926;-63
2024/03/22 10:14:04;;;;;;;;;;;14.00;99.90;;;;;;4978728;28;20342;-63
2024/03/22 10:16:34;;;;;;;;;;;14.00;99.90;;;;;;4995454;28;19925;-63
2024/03/22 10:19:00;;;;;;;;;;;13.90;99.90;;;;;;4981148;28;20341;-63
2024/03/22 10:21:27;;;;;;;;;;;13.90;99.90;;;;;;4959772;28;19933;-64
2024/03/22 10:23:53;;;;;;;;;;;14.00;99.90;;;;;;4965906;28;19933;-63
2024/03/22 10:26:19;;;;;;;;;;;14.00;99.90;;;;;;4975522;28;19933;-63
2024/03/22 10:28:46;;;;;;;;;;;14.10;99.90;;;;;;4965701;28;20358;-63
2024/03/22 10:31:12;;;;;;;;;;;14.10;99.90;;;;;;4963480;28;19930;-64
2024/03/22 10:33:40;;;;;;;;;;;14.10;99.90;;;;;;4965512;28;19979;-63
2024/03/22 10:36:06;;;;;;;;;;;14.10;99.90;;;;;;4983254;28;19934;-63
2024/03/22 10:38:32;;;;;;;;;;;14.10;99.90;;;;;;4975705;28;19925;-63
2024/03/22 10:41:00;;;;;;;;;;;14.10;99.90;;;;;;4975634;28;19980;-63
2024/03/22 10:43:25;;;;;;;;;;;14.10;99.90;;;;;;4981766;28;19937;-63
2024/03/22 10:45:56;;;;;;;;;;;14.10;99.90;;;;;;4959229;28;20024;-64
2024/03/22 10:48:25;;;;;;;;;;;14.10;99.90;;;;;;4981727;28;19933;-63
2024/03/22 10:50:52;;;;;;;;;;;14.10;99.90;;;;;;4983311;28;19995;-64
2024/03/22 10:53:20;;;;;;;;;;;14.20;99.90;;;;;;4963068;28;19925;-63
2024/03/22 10:55:48;;;;;;;;;;;14.40;99.90;;;;;;4977483;28;19934;-64
2024/03/22 10:58:18;;;;;;;;;;;14.50;99.90;;;;;;4982621;28;19959;-65
2024/03/22 11:00:44;;;;;;;;;;;14.60;99.90;;;;;;4979039;28;20413;-65
2024/03/22 11:03:10;;;;;;;;;;;14.70;99.90;;;;;;4963175;28;19925;-65
2024/03/22 11:05:46;;;;;;;;;;;14.80;99.90;;;;;;4967027;28;20313;-65
2024/03/22 11:08:12;;;;;;;;;;;15.00;99.90;;;;;;4961461;28;19951;-63
2024/03/22 11:10:37;;;;;;;;;;;15.00;99.90;;;;;;4977024;28;19926;-63
2024/03/22 11:13:04;;;;;;;;;;;15.00;99.90;;;;;;4967127;28;20024;-63
2024/03/22 11:15:30;;;;;;;;;;;15.10;99.90;;;;;;4980201;28;19932;-64
2024/03/22 11:17:57;;;;;;;;;;;15.10;99.90;;;;;;4980480;28;20410;-65
2024/03/22 11:20:22;;;;;;;;;;;15.10;99.90;;;;;;4964061;28;19926;-64
2024/03/22 11:22:49;;;;;;;;;;;15.20;99.90;;;;;;4979562;28;20040;-67
2024/03/22 11:25:15;;;;;;;;;;;15.30;99.90;;;;;;4981351;28;19933;-65
2024/03/22 11:27:41;;;;;;;;;;;15.40;99.90;;;;;;4976911;28;20321;-64
2024/03/22 11:30:07;;;;;;;;;;;15.50;99.90;;;;;;4981528;28;20024;-63
2024/03/22 11:32:46;;;;;;;;;;;15.60;99.90;;;;;;4975512;28;19933;-63
2024/03/22 11:35:12;;;;;;;;;;;15.70;99.90;;;;;;4976433;28;19930;-63
2024/03/22 11:37:39;;;;;;;;;;;15.70;99.90;;;;;;4978955;28;19934;-65
2024/03/22 11:40:05;;;;;;;;;;;15.70;99.90;;;;;;4981702;28;19926;-65
2024/03/22 11:42:33;;;;;;;;;;;15.70;99.90;;;;;;4966179;28;19937;-65
2024/03/22 11:44:59;;;;;;;;;;;15.80;99.90;;;;;;4973110;28;19930;-65
2024/03/22 11:47:25;;;;;;;;;;;15.90;99.90;;;;;;4973020;28;19925;-65
2024/03/22 11:49:51;;;;;;;;;;;16.00;99.90;;;;;;4955069;28;19926;-65
2024/03/22 11:52:17;;;;;;;;;;;16.10;99.90;;;;;;4968312;28;20028;-64
2024/03/22 11:54:42;;;;;;;;;;;16.10;99.90;;;;;;4969215;28;19934;-63
2024/03/22 11:57:09;;;;;;;;;;;16.10;99.90;;;;;;4962722;28;19926;-63
2024/03/22 11:59:35;;;;;;;;;;;16.10;99.90;;;;;;4960179;28;19940;-63
2024/03/22 12:02:01;;;;;;;;;;;16.10;99.90;;;;;;4971320;28;19926;-63
2024/03/22 12:04:26;;;;;;;;;;;16.20;99.90;;;;;;4944205;28;19930;-63
2024/03/22 12:06:53;;;;;;;;;;;16.30;99.90;;;;;;4968191;28;19930;-63
2024/03/22 12:09:19;;;;;;;;;;;16.40;99.90;;;;;;4966099;28;19934;-63
2024/03/22 12:11:45;;;;;;;;;;;16.40;99.90;;;;;;4957543;28;19964;-63
2024/03/22 12:14:11;;;;;;;;;;;16.40;99.90;;;;;;4966872;28;19933;-63
2024/03/22 12:16:37;;;;;;;;;;;16.40;99.90;;;;;;4956189;28;19930;-63
2024/03/22 12:19:03;;;;;;;;;;;16.50;99.90;;;;;;4965933;28;19934;-64
2024/03/22 12:21:30;;;;;;;;;;;16.60;99.90;;;;;;4961880;28;19965;-63
2024/03/22 12:23:55;;;;;;;;;;;16.70;99.90;;;;;;4955319;28;19926;-63
2024/03/22 12:26:22;;;;;;;;;;;16.80;99.90;;;;;;4962738;28;19930;-63
2024/03/22 12:28:48;;;;;;;;;;;16.80;99.90;;;;;;4957050;28;19926;-64
2024/03/22 12:31:16;;;;;;;;;;;16.90;99.90;;;;;;4967886;28;20020;-63
2024/03/22 12:33:42;;;;;;;;;;;17.10;99.90;;;;;;4962645;28;19954;-64
2024/03/22 12:36:08;;;;;;;;;;;17.20;99.90;;;;;;4957054;28;19932;-63
2024/03/22 12:38:34;;;;;;;;;;;17.20;99.90;;;;;;4967440;28;19996;-63
2024/03/22 12:41:00;;;;;;;;;;;17.30;99.90;;;;;;4965681;28;20020;-63
2024/03/22 12:43:26;;;;;;;;;;;17.30;99.90;;;;;;4966837;28;19980;-63
2024/03/22 12:45:52;;;;;;;;;;;17.20;99.90;;;;;;4963141;28;19934;-64
2024/03/22 12:48:18;;;;;;;;;;;17.30;99.90;;;;;;4968212;28;20318;-64
2024/03/22 12:50:44;;;;;;;;;;;17.30;99.90;;;;;;4964391;28;19938;-64
2024/03/22 12:53:10;;;;;;;;;;;17.20;99.90;;;;;;4957739;28;19986;-63
2024/03/22 12:55:36;;;;;;;;;;;17.30;99.90;;;;;;4963469;28;19926;-63
2024/03/22 12:58:03;;;;;;;;;;;17.30;99.90;;;;;;4960221;28;20409;-63
2024/03/22 13:00:29;;;;;;;;;;;17.40;99.90;;;;;;4957406;28;20310;-63
2024/03/22 13:02:55;;;;;;;;;;;17.40;99.90;;;;;;4966843;28;19926;-63
2024/03/22 13:05:21;;;;;;;;;;;17.40;99.90;;;;;;4964807;28;19933;-64
2024/03/22 13:07:48;;;;;;;;;;;17.50;99.90;;;;;;4966470;28;20387;-63
2024/03/22 13:10:13;;;;;;;;;;;17.40;99.90;;;;;;4965369;28;20441;-63
2024/03/22 13:12:42;;;;;;;;;;;17.40;99.90;;;;;;4965996;28;19926;-63
2024/03/22 13:15:09;;;;;;;;;;;17.40;99.90;;;;;;4961702;28;19930;-63
2024/03/22 13:17:35;;;;;;;;;;;17.40;99.90;;;;;;4960056;28;19932;-63
2024/03/22 13:20:01;;;;;;;;;;;17.30;99.90;;;;;;4960561;28;20306;-63
2024/03/22 13:22:27;;;;;;;;;;;17.30;99.90;;;;;;4959414;28;20012;-63
2024/03/22 13:24:54;;;;;;;;;;;17.30;99.90;;;;;;4965655;28;19953;-63
2024/03/22 13:27:22;;;;;;;;;;;17.30;99.90;;;;;;4958191;28;19926;-63
2024/03/22 13:29:48;;;;;;;;;;;17.20;99.90;;;;;;4972272;28;19930;-63
2024/03/22 13:32:14;;;;;;;;;;;17.30;99.90;;;;;;4959411;28;20330;-64
2024/03/22 13:34:40;;;;;;;;;;;17.40;99.90;;;;;;4971612;28;19973;-64
2024/03/22 13:37:06;;;;;;;;;;;17.50;99.90;;;;;;4968534;28;20345;-64
2024/03/22 13:39:32;;;;;;;;;;;17.40;99.90;;;;;;4973619;28;19972;-64
2024/03/22 13:41:58;;;;;;;;;;;17.50;99.90;;;;;;4973381;28;19926;-63
2024/03/22 13:44:24;;;;;;;;;;;17.50;99.90;;;;;;4969609;28;19926;-63
2024/03/22 13:46:50;;;;;;;;;;;17.50;99.90;;;;;;4970934;28;20474;-64
2024/03/22 13:49:16;;;;;;;;;;;17.60;99.90;;;;;;4975642;28;19999;-64
2024/03/22 13:51:43;;;;;;;;;;;17.60;99.90;;;;;;4970744;28;19930;-64
2024/03/22 13:54:10;;;;;;;;;;;17.70;99.90;;;;;;4974501;28;19926;-64
2024/03/22 13:56:36;;;;;;;;;;;17.70;99.90;;;;;;4973041;28;19984;-64
2024/03/22 13:59:04;;;;;;;;;;;17.80;99.90;;;;;;4959858;28;20345;-64
2024/03/22 14:01:30;;;;;;;;;;;17.90;99.90;;;;;;4959399;28;19930;-64
2024/03/22 14:03:56;;;;;;;;;;;18.00;99.90;;;;;;4986235;28;19938;-64
2024/03/22 14:06:22;;;;;;;;;;;18.00;99.90;;;;;;4969410;28;19941;-63
2024/03/22 14:08:48;;;;;;;;;;;18.00;99.90;;;;;;4972114;28;19925;-63
2024/03/22 14:11:14;;;;;;;;;;;17.90;99.90;;;;;;4984488;28;20532;-64
2024/03/22 14:13:40;;;;;;;;;;;17.80;99.90;;;;;;4972597;28;19968;-63
2024/03/22 14:16:07;;;;;;;;;;;17.60;99.90;;;;;;4974261;28;19962;-64
2024/03/22 14:18:33;;;;;;;;;;;17.50;99.90;;;;;;4973464;28;20350;-63